Startpagina
METAR-TAF:

METAR-TAF

Vliegvelden :

Georgetown, Ascension

breedte: 07-58S, lengte: 014-24W, hoogte: 86 m

Actueel weer

Dit bericht is 9 uur en het 53 minuten geleden gemaakt, om 20:50 UTC
Wind 9 kt uit het zuidoosten
Temperatuur 24°C
Vochtigheid 74%
Druk 1015 hPa
Zicht 10 km of meer
Weinig wolken op 2000 ft

METAR: FHAW 272050Z 14009KT 9999 FEW020 24/19 Q1015 BLU NOSIG

Tijdstip: 06:43 (06:43 UTC)

Verwachting

Dit bericht is 11 uur en het 13 minuten geleden gemaakt, om 19:30 UTC
Verwachting geldig van 27 om 21 UTC tot 28 om 15 UTC
Wind 12 kt uit het zuidzuidoosten
Zicht 10 km of meer
Verspreide wolken op 2500 ft
Kans 30% :
Tijdelijke
van 27 om 21 UTC tot 28 om 12 UTC
Verspreide wolken op 1800 ft

TAF: FHAW 271930Z 2721/2815 15012KT 9999 SCT025 PROB30 TEMPO 2721/2812 SCT018

Waarnemingen en weersverwachtingen van meer dan 4000 vliegvelden (METAR en TAF).

De beschikbare stations zijn de gele en rode punten op de kaart.

Ga met uw muis naar het station om de naam te zien.

Klik dan om waarnemingen en weersverwachtingen te zien.

kaart wijzigen: klik op de groene knoppen met een zwart kruis om in te zoomen, op de groene knop met een streepje om uit te zoomen of op de groene pijlen voor aangrenzende kaarten.


METAR-TAF: